createdAt,value
2023-03-04T00:00:02.583Z,1017.1
2023-03-04T00:01:02.630Z,1017.1
2023-03-04T00:02:02.657Z,1017.1
2023-03-04T00:03:02.809Z,1017.1
2023-03-04T00:04:02.695Z,1017.1
2023-03-04T00:05:02.611Z,1017
2023-03-04T00:06:02.623Z,1017
2023-03-04T00:07:02.581Z,1017.1
2023-03-04T00:08:02.559Z,1017
2023-03-04T00:09:02.497Z,1017.1
2023-03-04T00:10:02.389Z,1017
2023-03-04T00:11:02.373Z,1016.9
2023-03-04T00:12:02.311Z,1017
2023-03-04T00:13:02.201Z,1017
2023-03-04T00:14:02.195Z,1017
2023-03-04T00:15:02.021Z,1016.9
2023-03-04T00:16:02.190Z,1017
2023-03-04T00:17:01.713Z,1016.9
2023-03-04T00:18:01.830Z,1017
2023-03-04T00:19:02.782Z,1016.9
2023-03-04T00:20:02.633Z,1016.9
2023-03-04T00:21:02.687Z,1017
2023-03-04T00:22:02.550Z,1016.9
2023-03-04T00:23:02.604Z,1016.9
2023-03-04T00:24:02.450Z,1016.8
2023-03-04T00:25:02.521Z,1016.8
2023-03-04T00:26:02.463Z,1016.8
2023-03-04T00:27:02.358Z,1016.8
2023-03-04T00:28:02.366Z,1016.7
2023-03-04T00:29:02.352Z,1016.8
2023-03-04T00:30:02.127Z,1016.8
2023-03-04T00:31:02.104Z,1016.7
2023-03-04T00:32:02.435Z,1016.7
2023-03-04T00:33:02.168Z,1016.7
2023-03-04T00:34:02.177Z,1016.6
2023-03-04T00:35:01.964Z,1016.7
2023-03-04T00:36:01.883Z,1016.7
2023-03-04T00:37:01.888Z,1016.6
2023-03-04T00:38:01.832Z,1016.6
2023-03-04T00:39:02.771Z,1016.6
2023-03-04T00:40:02.612Z,1016.7
2023-03-04T00:41:02.621Z,1016.8
2023-03-04T00:42:02.526Z,1016.7
2023-03-04T00:43:02.661Z,1016.6
2023-03-04T00:44:02.426Z,1016.7
2023-03-04T00:45:02.499Z,1016.6
2023-03-04T00:46:02.618Z,1016.6
2023-03-04T00:47:02.173Z,1016.5
2023-03-04T00:48:02.215Z,1016.5
2023-03-04T00:49:02.143Z,1016.6
2023-03-04T00:50:02.107Z,1016.5
2023-03-04T00:51:01.814Z,1016.4
2023-03-04T00:52:01.892Z,1016.5
2023-03-04T00:53:01.720Z,1016.4
2023-03-04T00:54:02.778Z,1016.4
2023-03-04T00:55:02.627Z,1016.3
2023-03-04T00:56:02.700Z,1016.4
2023-03-04T00:57:02.569Z,1016.3
2023-03-04T00:58:02.533Z,1016.4
2023-03-04T00:59:02.407Z,1016.3
2023-03-04T01:00:02.452Z,1016.3
2023-03-04T01:01:02.581Z,1016.3
2023-03-04T01:02:02.660Z,1016.2
2023-03-04T01:03:02.546Z,1016.2
2023-03-04T01:04:02.459Z,1016.1
2023-03-04T01:05:02.566Z,1016.1
2023-03-04T01:06:02.464Z,1016.1
2023-03-04T01:07:02.299Z,1016.1
2023-03-04T01:08:02.282Z,1016
2023-03-04T01:09:02.123Z,1016.1
2023-03-04T01:10:02.160Z,1016
2023-03-04T01:11:02.072Z,1016
2023-03-04T01:12:01.995Z,1016
2023-03-04T01:13:01.933Z,1016
2023-03-04T01:14:01.919Z,1016
2023-03-04T01:15:01.774Z,1016
2023-03-04T01:16:01.809Z,1016.1
2023-03-04T01:17:02.947Z,1016
2023-03-04T01:18:01.883Z,1016
2023-03-04T01:19:02.718Z,1016
2023-03-04T01:20:02.592Z,1015.9
2023-03-04T01:21:02.700Z,1015.9
2023-03-04T01:22:02.613Z,1015.9
2023-03-04T01:23:02.513Z,1015.9
2023-03-04T01:24:02.534Z,1015.9
2023-03-04T01:25:02.389Z,1015.9
2023-03-04T01:26:02.468Z,1015.8
2023-03-04T01:27:02.388Z,1015.8
2023-03-04T01:28:02.300Z,1015.9
2023-03-04T01:29:02.181Z,1015.8
2023-03-04T01:30:02.028Z,1015.8
2023-03-04T01:31:02.238Z,1015.9
2023-03-04T01:32:02.297Z,1015.8
2023-03-04T01:33:02.029Z,1015.8
2023-03-04T01:34:02.143Z,1015.8
2023-03-04T01:35:01.936Z,1015.9
2023-03-04T01:36:01.969Z,1015.8
2023-03-04T01:37:01.793Z,1015.8
2023-03-04T01:38:01.854Z,1015.8
2023-03-04T01:39:01.733Z,1015.7
2023-03-04T01:40:01.847Z,1015.7
2023-03-04T01:41:02.795Z,1015.7
2023-03-04T01:42:02.647Z,1015.7
2023-03-04T01:43:02.700Z,1015.7
2023-03-04T01:44:02.564Z,1015.6
2023-03-04T01:45:02.621Z,1015.6
2023-03-04T01:46:02.599Z,1015.6
2023-03-04T01:47:02.649Z,1015.6
2023-03-04T01:48:02.728Z,1015.7
2023-03-04T01:49:02.817Z,1015.5
2023-03-04T01:50:02.218Z,1015.6
2023-03-04T01:51:02.067Z,1015.6
2023-03-04T01:52:02.066Z,1015.6
2023-03-04T01:53:01.882Z,1015.6
2023-03-04T01:54:01.953Z,1015.5
2023-03-04T01:55:01.773Z,1015.5
2023-03-04T01:56:02.780Z,1015.5
2023-03-04T01:57:02.614Z,1015.6
2023-03-04T01:58:02.704Z,1015.5
2023-03-04T01:59:02.548Z,1015.5
2023-03-04T02:00:02.581Z,1015.6
2023-03-04T02:01:02.452Z,1015.5
2023-03-04T02:02:02.366Z,1015.5
2023-03-04T02:03:02.346Z,1015.5
2023-03-04T02:04:02.489Z,1015.4
2023-03-04T02:05:02.205Z,1015.4
2023-03-04T02:06:02.237Z,1015.4
2023-03-04T02:07:02.124Z,1015.5
2023-03-04T02:08:02.153Z,1015.4
2023-03-04T02:09:02.389Z,1015.4
2023-03-04T02:10:02.154Z,1015.4
2023-03-04T02:11:02.201Z,1015.4
2023-03-04T02:12:02.085Z,1015.4
2023-03-04T02:13:02.081Z,1015.4
2023-03-04T02:14:01.976Z,1015.4
2023-03-04T02:15:01.893Z,1015.4
2023-03-04T02:16:01.981Z,1015.4
2023-03-04T02:17:01.769Z,1015.4
2023-03-04T02:18:01.875Z,1015.3
2023-03-04T02:19:01.737Z,1015.4
2023-03-04T02:20:02.781Z,1015.4
2023-03-04T02:21:02.618Z,1015.3
2023-03-04T02:22:02.742Z,1015.3
2023-03-04T02:23:02.574Z,1015.3
2023-03-04T02:24:02.605Z,1015.2
2023-03-04T02:25:02.448Z,1015.2
2023-03-04T02:26:02.446Z,1015.2
2023-03-04T02:27:02.455Z,1015.2
2023-03-04T02:28:02.280Z,1015.2
2023-03-04T02:29:02.277Z,1015.2
2023-03-04T02:30:02.123Z,1015.2
2023-03-04T02:31:02.239Z,1015.2
2023-03-04T02:32:02.110Z,1015.1
2023-03-04T02:33:01.914Z,1015.1
2023-03-04T02:34:01.771Z,1015.1
2023-03-04T02:35:01.774Z,1015
2023-03-04T02:36:02.778Z,1015.1
2023-03-04T02:37:02.602Z,1015
2023-03-04T02:38:02.645Z,1015
2023-03-04T02:39:02.860Z,1015
2023-03-04T02:40:02.766Z,1015
2023-03-04T02:41:02.638Z,1015
2023-03-04T02:42:02.740Z,1015
2023-03-04T02:43:02.572Z,1015
2023-03-04T02:44:02.585Z,1015.1
2023-03-04T02:45:02.436Z,1015
2023-03-04T02:46:02.486Z,1015
2023-03-04T02:47:02.347Z,1015
2023-03-04T02:48:02.217Z,1014.9
2023-03-04T02:49:02.261Z,1015
2023-03-04T02:50:02.040Z,1014.9
2023-03-04T02:51:02.049Z,1014.8
2023-03-04T02:52:02.015Z,1014.8
2023-03-04T02:53:01.831Z,1014.8
2023-03-04T02:54:01.742Z,1014.9
2023-03-04T02:55:01.852Z,1014.8
2023-03-04T02:56:02.763Z,1014.8
2023-03-04T02:57:02.645Z,1014.8
2023-03-04T02:58:02.693Z,1014.8
2023-03-04T02:59:02.553Z,1014.8
2023-03-04T03:00:02.601Z,1014.8
2023-03-04T03:01:02.381Z,1014.8
2023-03-04T03:02:02.446Z,1014.8
2023-03-04T03:03:02.590Z,1014.8
2023-03-04T03:04:02.440Z,1014.7
2023-03-04T03:05:02.264Z,1014.8
2023-03-04T03:06:02.370Z,1014.7
2023-03-04T03:07:02.319Z,1014.8
2023-03-04T03:08:02.238Z,1014.8
2023-03-04T03:09:02.257Z,1014.8
2023-03-04T03:10:02.267Z,1014.8
2023-03-04T03:11:01.990Z,1014.9
2023-03-04T03:12:02.007Z,1014.9
2023-03-04T03:13:01.767Z,1014.8
2023-03-04T03:14:01.858Z,1014.8
2023-03-04T03:15:02.783Z,1014.9
2023-03-04T03:16:02.868Z,1014.9
2023-03-04T03:17:02.544Z,1014.9
2023-03-04T03:18:02.626Z,1014.9
2023-03-04T03:19:02.529Z,1014.8
2023-03-04T03:20:02.551Z,1014.8
2023-03-04T03:21:02.449Z,1014.8
2023-03-04T03:22:02.321Z,1014.9
2023-03-04T03:23:02.333Z,1014.8
2023-03-04T03:24:02.273Z,1014.9
2023-03-04T03:25:02.134Z,1014.8
2023-03-04T03:26:02.140Z,1014.8
2023-03-04T03:27:01.976Z,1014.9
2023-03-04T03:28:01.975Z,1014.9
2023-03-04T03:29:01.966Z,1014.7
2023-03-04T03:30:02.049Z,1014.8
2023-03-04T03:31:01.803Z,1014.8
2023-03-04T03:32:01.917Z,1014.8
2023-03-04T03:33:01.781Z,1014.8
2023-03-04T03:34:02.777Z,1014.8
2023-03-04T03:35:02.593Z,1014.8
2023-03-04T03:36:03.272Z,1014.8
2023-03-04T03:37:02.038Z,1014.8
2023-03-04T03:38:02.094Z,1014.8
2023-03-04T03:39:01.953Z,1014.8
2023-03-04T03:40:01.959Z,1014.8
2023-03-04T03:41:01.769Z,1014.9
2023-03-04T03:42:01.840Z,1014.8
2023-03-04T03:43:02.743Z,1014.8
2023-03-04T03:44:02.655Z,1014.8
2023-03-04T03:45:02.696Z,1014.8
2023-03-04T03:46:02.794Z,1014.8
2023-03-04T03:47:02.486Z,1014.8
2023-03-04T03:48:02.471Z,1014.7
2023-03-04T03:49:02.414Z,1014.8
2023-03-04T03:50:02.245Z,1014.7
2023-03-04T03:51:02.298Z,1014.8
2023-03-04T03:52:02.260Z,1014.8
2023-03-04T03:53:02.232Z,1014.7
2023-03-04T03:54:02.142Z,1014.7
2023-03-04T03:55:02.569Z,1014.8
2023-03-04T03:56:02.369Z,1014.8
2023-03-04T03:57:02.348Z,1014.7
2023-03-04T03:58:02.345Z,1014.8
2023-03-04T03:59:02.168Z,1014.7
2023-03-04T04:00:02.144Z,1014.7
2023-03-04T04:01:01.911Z,1014.7
2023-03-04T04:02:02.115Z,1014.8
2023-03-04T04:03:02.107Z,1014.7
2023-03-04T04:04:01.895Z,1014.8
2023-03-04T04:05:01.921Z,1014.7
2023-03-04T04:06:01.742Z,1014.8
2023-03-04T04:07:02.820Z,1014.7
2023-03-04T04:08:02.625Z,1014.7
2023-03-04T04:09:02.681Z,1014.8
2023-03-04T04:10:02.579Z,1014.8
2023-03-04T04:11:02.584Z,1014.8
2023-03-04T04:12:02.442Z,1014.8
2023-03-04T04:13:02.481Z,1014.7
2023-03-04T04:14:02.475Z,1014.8
2023-03-04T04:15:02.367Z,1014.8
2023-03-04T04:16:02.359Z,1014.8
2023-03-04T04:17:02.258Z,1014.7
2023-03-04T04:18:02.074Z,1014.8
2023-03-04T04:19:02.039Z,1014.7
2023-03-04T04:20:01.865Z,1014.8
2023-03-04T04:21:01.867Z,1014.8
2023-03-04T04:22:01.710Z,1014.7
2023-03-04T04:23:02.791Z,1014.7
2023-03-04T04:24:02.612Z,1014.7
2023-03-04T04:25:02.731Z,1014.7
2023-03-04T04:26:02.610Z,1014.7
2023-03-04T04:27:02.533Z,1014.7
2023-03-04T04:28:02.437Z,1014.7
2023-03-04T04:29:02.476Z,1014.7
2023-03-04T04:30:02.455Z,1014.7
2023-03-04T04:31:02.413Z,1014.8
2023-03-04T04:32:02.091Z,1014.7
2023-03-04T04:33:02.014Z,1014.7
2023-03-04T04:34:01.805Z,1014.7
2023-03-04T04:35:01.858Z,1014.6
2023-03-04T04:36:02.733Z,1014.6
2023-03-04T04:37:02.656Z,1014.6
2023-03-04T04:38:02.664Z,1014.6
2023-03-04T04:39:02.521Z,1014.6
2023-03-04T04:40:02.586Z,1014.6
2023-03-04T04:41:02.390Z,1014.6
2023-03-04T04:42:02.472Z,1014.6
2023-03-04T04:43:02.469Z,1014.6
2023-03-04T04:44:02.288Z,1014.7
2023-03-04T04:45:02.354Z,1014.7
2023-03-04T04:46:02.640Z,1014.7
2023-03-04T04:47:02.080Z,1014.7
2023-03-04T04:48:02.170Z,1014.7
2023-03-04T04:49:01.977Z,1014.7
2023-03-04T04:50:02.051Z,1014.6
2023-03-04T04:51:01.858Z,1014.6
2023-03-04T04:52:01.863Z,1014.6
2023-03-04T04:53:01.706Z,1014.6
2023-03-04T04:54:02.789Z,1014.7
2023-03-04T04:55:02.680Z,1014.6
2023-03-04T04:56:02.694Z,1014.7
2023-03-04T04:57:02.530Z,1014.7
2023-03-04T04:58:02.578Z,1014.6
2023-03-04T04:59:02.418Z,1014.8
2023-03-04T05:00:02.464Z,1014.7
2023-03-04T05:01:02.583Z,1014.7
2023-03-04T05:02:02.428Z,1014.7
2023-03-04T05:03:02.648Z,1014.7
2023-03-04T05:04:02.479Z,1014.6
2023-03-04T05:05:02.304Z,1014.6
2023-03-04T05:06:02.370Z,1014.6
2023-03-04T05:07:02.127Z,1014.6
2023-03-04T05:08:02.133Z,1014.7
2023-03-04T05:09:01.949Z,1014.6
2023-03-04T05:10:01.981Z,1014.6
2023-03-04T05:11:01.833Z,1014.5
2023-03-04T05:12:01.843Z,1014.6
2023-03-04T05:13:01.731Z,1014.5
2023-03-04T05:14:01.816Z,1014.5
2023-03-04T05:15:02.792Z,1014.6
2023-03-04T05:16:02.849Z,1014.5
2023-03-04T05:17:01.783Z,1014.7
2023-03-04T05:18:01.835Z,1014.5
2023-03-04T05:19:01.715Z,1014.6
2023-03-04T05:20:02.770Z,1014.5
2023-03-04T05:21:02.624Z,1014.6
2023-03-04T05:22:02.743Z,1014.6
2023-03-04T05:23:02.608Z,1014.6
2023-03-04T05:24:02.611Z,1014.5
2023-03-04T05:25:02.518Z,1014.5
2023-03-04T05:26:02.584Z,1014.5
2023-03-04T05:27:02.437Z,1014.5
2023-03-04T05:28:02.510Z,1014.5
2023-03-04T05:29:02.386Z,1014.4
2023-03-04T05:30:02.356Z,1014.5
2023-03-04T05:31:02.609Z,1014.4
2023-03-04T05:32:02.351Z,1014.4
2023-03-04T05:33:02.070Z,1014.3
2023-03-04T05:34:02.136Z,1014.3
2023-03-04T05:35:01.966Z,1014.4
2023-03-04T05:36:02.190Z,1014.3
2023-03-04T05:37:01.954Z,1014.4
2023-03-04T05:38:02.003Z,1014.3
2023-03-04T05:39:01.778Z,1014.4
2023-03-04T05:40:01.857Z,1014.3
2023-03-04T05:41:02.736Z,1014.3
2023-03-04T05:42:02.679Z,1014.3
2023-03-04T05:43:02.644Z,1014.3
2023-03-04T05:44:02.460Z,1014.3
2023-03-04T05:45:02.592Z,1014.3
2023-03-04T05:46:02.593Z,1014.3
2023-03-04T05:47:02.346Z,1014.3
2023-03-04T05:48:02.362Z,1014.4
2023-03-04T05:49:02.346Z,1014.3
2023-03-04T05:50:02.158Z,1014.2
2023-03-04T05:51:02.255Z,1014.4
2023-03-04T05:52:01.982Z,1014.3
2023-03-04T05:53:02.008Z,1014.3
2023-03-04T05:54:01.856Z,1014.4
2023-03-04T05:55:01.922Z,1014.3
2023-03-04T05:56:01.714Z,1014.3
2023-03-04T05:57:02.772Z,1014.3
2023-03-04T05:58:02.613Z,1014.2
2023-03-04T05:59:02.725Z,1014.2
2023-03-04T06:00:02.576Z,1014.2
2023-03-04T06:01:02.607Z,1014.2
2023-03-04T06:02:02.324Z,1014.2
2023-03-04T06:03:02.577Z,1014.2
2023-03-04T06:04:02.150Z,1014.2
2023-03-04T06:05:02.055Z,1014.2
2023-03-04T06:06:01.768Z,1014.2
2023-03-04T06:07:01.882Z,1014.2
2023-03-04T06:08:02.767Z,1014.2
2023-03-04T06:09:02.618Z,1014.3
2023-03-04T06:10:02.722Z,1014.2
2023-03-04T06:11:02.537Z,1014.2
2023-03-04T06:12:02.590Z,1014.1
2023-03-04T06:13:02.411Z,1014.2
2023-03-04T06:14:02.648Z,1014.2
2023-03-04T06:15:02.450Z,1014.1
2023-03-04T06:16:02.527Z,1014.2
2023-03-04T06:17:02.604Z,1014.1
2023-03-04T06:18:02.657Z,1014.2
2023-03-04T06:19:02.556Z,1014.2
2023-03-04T06:20:02.493Z,1014.1
2023-03-04T06:21:02.491Z,1014.1
2023-03-04T06:22:02.341Z,1014.2
2023-03-04T06:23:02.374Z,1014.2
2023-03-04T06:24:02.311Z,1014.2
2023-03-04T06:25:02.253Z,1014.2
2023-03-04T06:26:02.188Z,1014.2
2023-03-04T06:27:02.068Z,1014.2
2023-03-04T06:28:02.123Z,1014.2
2023-03-04T06:29:01.939Z,1014.2
2023-03-04T06:30:01.987Z,1014.3
2023-03-04T06:31:02.356Z,1014.2
2023-03-04T06:32:01.905Z,1014.2
2023-03-04T06:33:01.812Z,1014.3
2023-03-04T06:34:02.767Z,1014.2
2023-03-04T06:35:02.580Z,1014.3
2023-03-04T06:36:02.636Z,1014.4
2023-03-04T06:37:02.514Z,1014.3
2023-03-04T06:38:02.557Z,1014.4
2023-03-04T06:39:02.468Z,1014.4
2023-03-04T06:40:02.381Z,1014.4
2023-03-04T06:41:02.442Z,1014.4
2023-03-04T06:42:02.390Z,1014.4
2023-03-04T06:43:02.262Z,1014.4
2023-03-04T06:44:02.258Z,1014.4
2023-03-04T06:45:02.322Z,1014.4
2023-03-04T06:46:02.075Z,1014.4
2023-03-04T06:47:02.418Z,1014.4
2023-03-04T06:48:02.294Z,1014.5
2023-03-04T06:49:02.111Z,1014.5
2023-03-04T06:50:02.175Z,1014.5
2023-03-04T06:51:02.009Z,1014.5
2023-03-04T06:52:02.123Z,1014.5
2023-03-04T06:53:01.926Z,1014.5
2023-03-04T06:54:01.960Z,1014.7
2023-03-04T06:55:01.787Z,1014.6
2023-03-04T06:56:02.199Z,1014.6
2023-03-04T06:57:01.896Z,1014.6
2023-03-04T06:58:01.945Z,1014.6
2023-03-04T06:59:01.813Z,1014.6
2023-03-04T07:00:01.808Z,1014.6
2023-03-04T07:01:02.955Z,1014.6
2023-03-04T07:02:02.487Z,1014.7
2023-03-04T07:03:02.525Z,1014.6
2023-03-04T07:04:02.600Z,1014.6
2023-03-04T07:05:02.430Z,1014.7
2023-03-04T07:06:02.444Z,1014.6
2023-03-04T07:07:02.371Z,1014.7
2023-03-04T07:08:02.227Z,1014.6
2023-03-04T07:09:02.224Z,1014.6
2023-03-04T07:10:02.282Z,1014.5
2023-03-04T07:11:02.068Z,1014.6
2023-03-04T07:12:02.073Z,1014.5
2023-03-04T07:13:01.841Z,1014.6
2023-03-04T07:14:01.944Z,1014.6
2023-03-04T07:15:01.682Z,1014.6
2023-03-04T07:16:02.829Z,1014.6
2023-03-04T07:17:02.665Z,1014.6
2023-03-04T07:18:02.743Z,1014.6
2023-03-04T07:19:02.601Z,1014.5
2023-03-04T07:20:02.609Z,1014.6
2023-03-04T07:21:02.497Z,1014.5
2023-03-04T07:22:02.388Z,1014.7
2023-03-04T07:23:02.508Z,1014.6
2023-03-04T07:24:02.368Z,1014.6
2023-03-04T07:25:02.428Z,1014.7
2023-03-04T07:26:02.399Z,1014.7
2023-03-04T07:27:02.256Z,1014.6
2023-03-04T07:28:02.299Z,1014.7
2023-03-04T07:29:02.090Z,1014.6
2023-03-04T07:30:02.101Z,1014.7
2023-03-04T07:31:01.931Z,1014.7
2023-03-04T07:32:02.236Z,1014.7
2023-03-04T07:33:02.052Z,1014.7
2023-03-04T07:34:01.954Z,1014.7
2023-03-04T07:35:02.008Z,1014.6
2023-03-04T07:36:01.766Z,1014.7
2023-03-04T07:37:01.817Z,1014.7
2023-03-04T07:38:02.723Z,1014.6
2023-03-04T07:39:02.661Z,1014.7
2023-03-04T07:40:02.713Z,1014.7
2023-03-04T07:41:02.581Z,1014.8
2023-03-04T07:42:02.626Z,1014.7
2023-03-04T07:43:02.441Z,1014.7
2023-03-04T07:44:02.469Z,1014.8
2023-03-04T07:45:02.459Z,1014.7
2023-03-04T07:46:02.756Z,1014.6
2023-03-04T07:47:02.175Z,1014.7
2023-03-04T07:48:02.179Z,1014.7
2023-03-04T07:49:01.998Z,1014.7
2023-03-04T07:50:02.213Z,1014.7
2023-03-04T07:51:01.954Z,1014.7
2023-03-04T07:52:01.974Z,1014.6
2023-03-04T07:53:01.762Z,1014.7
2023-03-04T07:54:01.889Z,1014.7
2023-03-04T07:55:01.707Z,1014.7
2023-03-04T07:56:03.250Z,1014.7
2023-03-04T07:57:01.972Z,1014.7
2023-03-04T07:58:01.978Z,1014.7
2023-03-04T07:59:01.846Z,1014.7
2023-03-04T08:00:01.878Z,1014.7
2023-03-04T08:01:02.811Z,1014.7
2023-03-04T08:02:02.524Z,1014.7
2023-03-04T08:03:02.567Z,1014.7
2023-03-04T08:04:02.671Z,1014.7
2023-03-04T08:05:02.424Z,1014.7
2023-03-04T08:06:02.477Z,1014.7
2023-03-04T08:07:02.473Z,1014.7
2023-03-04T08:08:02.281Z,1014.7
2023-03-04T08:09:02.393Z,1014.8
2023-03-04T08:10:02.375Z,1014.7
2023-03-04T08:11:02.156Z,1014.8
2023-03-04T08:12:02.227Z,1014.7
2023-03-04T08:13:01.971Z,1014.8
2023-03-04T08:14:02.036Z,1014.8
2023-03-04T08:15:01.801Z,1014.7
2023-03-04T08:16:02.103Z,1014.8
2023-03-04T08:17:01.730Z,1014.7
2023-03-04T08:18:01.815Z,1014.7
2023-03-04T08:19:02.781Z,1014.8
2023-03-04T08:20:02.617Z,1014.7
2023-03-04T08:21:02.673Z,1014.8
2023-03-04T08:22:02.536Z,1014.7
2023-03-04T08:23:02.631Z,1014.8
2023-03-04T08:24:02.666Z,1014.8
2023-03-04T08:25:02.579Z,1014.8
2023-03-04T08:26:02.403Z,1014.8
2023-03-04T08:27:02.474Z,1014.8
2023-03-04T08:28:02.402Z,1014.7
2023-03-04T08:29:02.263Z,1014.7
2023-03-04T08:30:02.313Z,1014.7
2023-03-04T08:31:02.453Z,1014.8
2023-03-04T08:32:02.552Z,1014.7
2023-03-04T08:33:02.558Z,1014.8
2023-03-04T08:34:02.423Z,1014.7
2023-03-04T08:35:02.299Z,1014.7
2023-03-04T08:36:02.339Z,1014.7
2023-03-04T08:37:02.245Z,1014.7
2023-03-04T08:38:03.044Z,1014.7
2023-03-04T08:39:01.849Z,1014.8
2023-03-04T08:40:01.713Z,1014.7
2023-03-04T08:41:02.779Z,1014.7
2023-03-04T08:42:02.634Z,1014.8
2023-03-04T08:43:02.694Z,1014.7
2023-03-04T08:44:02.537Z,1014.7
2023-03-04T08:45:02.664Z,1014.8
2023-03-04T08:46:02.651Z,1014.8
2023-03-04T08:47:02.314Z,1014.8
2023-03-04T08:48:02.412Z,1014.7
2023-03-04T08:49:02.351Z,1014.7
2023-03-04T08:50:02.215Z,1014.7
2023-03-04T08:51:02.264Z,1014.7
2023-03-04T08:52:02.102Z,1014.7
2023-03-04T08:53:02.130Z,1014.7
2023-03-04T08:54:01.892Z,1014.6
2023-03-04T08:55:01.940Z,1014.7
2023-03-04T08:56:01.958Z,1014.7
2023-03-04T08:57:02.782Z,1014.8
2023-03-04T08:58:02.665Z,1014.7
2023-03-04T08:59:02.722Z,1014.6
2023-03-04T09:00:02.559Z,1014.7
2023-03-04T09:01:02.569Z,1014.7
2023-03-04T09:02:02.377Z,1014.7
2023-03-04T09:03:02.326Z,1014.7
2023-03-04T09:04:02.142Z,1014.6
2023-03-04T09:05:02.173Z,1014.6
2023-03-04T09:06:02.032Z,1014.6
2023-03-04T09:07:02.068Z,1014.6
2023-03-04T09:08:01.826Z,1014.7
2023-03-04T09:09:01.876Z,1014.7
2023-03-04T09:10:01.820Z,1014.6
2023-03-04T09:11:02.816Z,1014.7
2023-03-04T09:12:02.646Z,1014.7
2023-03-04T09:13:02.643Z,1014.6
2023-03-04T09:14:02.586Z,1014.6
2023-03-04T09:15:12.341Z,1014.6
2023-03-04T09:16:02.524Z,1014.6
2023-03-04T09:17:02.446Z,1014.7
2023-03-04T09:18:02.461Z,1014.6
2023-03-04T09:19:02.480Z,1014.7
2023-03-04T09:20:04.982Z,1014.6
2023-03-04T09:21:01.712Z,1014.7
2023-03-04T09:22:02.842Z,1014.7
2023-03-04T09:23:02.657Z,1014.6
2023-03-04T09:24:02.662Z,1014.5
2023-03-04T09:25:02.519Z,1014.6
2023-03-04T09:26:02.535Z,1014.6
2023-03-04T09:27:02.371Z,1014.6
2023-03-04T09:28:02.438Z,1014.6
2023-03-04T09:29:02.354Z,1014.6
2023-03-04T09:30:02.188Z,1014.6
2023-03-04T09:31:02.303Z,1014.6
2023-03-04T09:32:01.938Z,1014.6
2023-03-04T09:33:01.893Z,1014.6
2023-03-04T09:34:01.746Z,1014.8
2023-03-04T09:35:02.789Z,1014.7
2023-03-04T09:36:02.896Z,1014.6
2023-03-04T09:37:02.770Z,1014.6
2023-03-04T09:38:02.623Z,1014.6
2023-03-04T09:39:02.680Z,1014.7
2023-03-04T09:40:02.568Z,1014.6
2023-03-04T09:41:02.523Z,1014.5
2023-03-04T09:42:02.538Z,1014.5
2023-03-04T09:43:02.360Z,1014.6
2023-03-04T09:44:02.438Z,1014.6
2023-03-04T09:45:02.306Z,1014.6
2023-03-04T09:46:02.109Z,1014.6
2023-03-04T09:47:02.012Z,1014.6
2023-03-04T09:48:02.084Z,1014.6
2023-03-04T09:49:01.855Z,1014.6
2023-03-04T09:50:01.894Z,1014.6
2023-03-04T09:51:01.761Z,1014.6
2023-03-04T09:52:01.848Z,1014.6
2023-03-04T09:53:02.774Z,1014.6
2023-03-04T09:54:02.614Z,1014.6
2023-03-04T09:55:05.413Z,1014.6
2023-03-04T09:56:02.130Z,1014.6
2023-03-04T09:57:02.087Z,1014.6
2023-03-04T09:58:01.933Z,1014.6
2023-03-04T09:59:01.944Z,1014.6
2023-03-04T10:00:01.858Z,1014.6
2023-03-04T10:01:05.726Z,1014.6
2023-03-04T10:02:02.566Z,1014.6
2023-03-04T10:03:02.426Z,1014.5
2023-03-04T10:04:02.518Z,1014.5
2023-03-04T10:05:02.702Z,1014.6
2023-03-04T10:06:02.577Z,1014.5
2023-03-04T10:07:02.624Z,1014.5
2023-03-04T10:08:02.442Z,1014.5
2023-03-04T10:09:02.525Z,1014.5
2023-03-04T10:10:02.436Z,1014.4
2023-03-04T10:11:02.382Z,1014.5
2023-03-04T10:12:02.339Z,1014.4
2023-03-04T10:13:02.281Z,1014.5
2023-03-04T10:14:02.105Z,1014.5
2023-03-04T10:15:02.172Z,1014.4
2023-03-04T10:16:02.102Z,1014.4
2023-03-04T10:17:01.922Z,1014.5
2023-03-04T10:18:01.943Z,1014.4
2023-03-04T10:19:01.797Z,1014.4
2023-03-04T10:20:01.839Z,1014.3
2023-03-04T10:21:01.774Z,1014.4
2023-03-04T10:22:02.764Z,1014.4
2023-03-04T10:23:02.640Z,1014.3
2023-03-04T10:24:02.678Z,1014.3
2023-03-04T10:25:02.505Z,1014.3
2023-03-04T10:26:02.585Z,1014.3
2023-03-04T10:27:02.387Z,1014.3
2023-03-04T10:28:02.476Z,1014.3
2023-03-04T10:29:02.370Z,1014.3
2023-03-04T10:30:02.286Z,1014.2
2023-03-04T10:31:02.323Z,1014.3
2023-03-04T10:32:02.525Z,1014.3
2023-03-04T10:33:02.356Z,1014.2
2023-03-04T10:34:02.314Z,1014.2
2023-03-04T10:35:02.251Z,1014.2
2023-03-04T10:36:02.227Z,1014.2
2023-03-04T10:37:02.139Z,1014.1
2023-03-04T10:38:01.945Z,1014.2
2023-03-04T10:39:02.013Z,1014.2
2023-03-04T10:40:01.874Z,1014.2
2023-03-04T10:41:01.878Z,1014.2
2023-03-04T10:42:02.182Z,1014.2
2023-03-04T10:43:02.429Z,1014.2
2023-03-04T10:44:02.256Z,1014.2
2023-03-04T10:45:02.095Z,1014.2
2023-03-04T10:46:02.399Z,1014.2
2023-03-04T10:47:01.868Z,1014.1
2023-03-04T10:48:01.882Z,1014.1
2023-03-04T10:49:01.824Z,1014.1
2023-03-04T10:50:02.175Z,1014
2023-03-04T10:51:02.010Z,1014
2023-03-04T10:52:02.051Z,1014.1
2023-03-04T10:53:01.851Z,1014
2023-03-04T10:54:01.885Z,1014.1
2023-03-04T10:55:01.747Z,1014
2023-03-04T10:56:02.769Z,1014
2023-03-04T10:57:02.600Z,1014
2023-03-04T10:58:03.039Z,1014
2023-03-04T10:59:01.782Z,1014
2023-03-04T11:00:01.950Z,1014
2023-03-04T11:01:01.847Z,1013.9
2023-03-04T11:02:02.008Z,1013.9
2023-03-04T11:03:01.983Z,1014
2023-03-04T11:04:02.275Z,1013.9
2023-03-04T11:05:02.068Z,1013.9
2023-03-04T11:06:02.030Z,1013.9
2023-03-04T11:07:01.956Z,1013.9
2023-03-04T11:08:01.855Z,1013.9
2023-03-04T11:09:01.746Z,1013.9
2023-03-04T11:10:01.773Z,1013.9
2023-03-04T11:11:02.764Z,1013.9
2023-03-04T11:12:02.701Z,1013.9
2023-03-04T11:13:02.584Z,1013.9
2023-03-04T11:14:02.464Z,1013.9
2023-03-04T11:15:02.547Z,1013.8
2023-03-04T11:16:02.396Z,1013.9
2023-03-04T11:17:02.370Z,1013.8
2023-03-04T11:18:02.402Z,1013.9
2023-03-04T11:19:02.397Z,1013.9
2023-03-04T11:20:02.301Z,1013.9
2023-03-04T11:21:02.312Z,1013.8
2023-03-04T11:22:02.301Z,1013.8
2023-03-04T11:23:05.018Z,1013.9
2023-03-04T11:24:01.727Z,1013.8
2023-03-04T11:25:01.731Z,1013.8
2023-03-04T11:26:02.615Z,1013.8
2023-03-04T11:27:02.575Z,1013.8
2023-03-04T11:28:02.544Z,1013.8
2023-03-04T11:29:02.517Z,1013.7
2023-03-04T11:30:02.454Z,1013.7
2023-03-04T11:31:02.418Z,1013.7
2023-03-04T11:32:02.666Z,1013.7
2023-03-04T11:33:02.518Z,1013.7
2023-03-04T11:34:02.504Z,1013.7
2023-03-04T11:35:02.441Z,1013.7
2023-03-04T11:36:02.341Z,1013.8
2023-03-04T11:37:02.259Z,1013.6
2023-03-04T11:38:02.382Z,1013.6
2023-03-04T11:39:02.287Z,1013.7
2023-03-04T11:40:02.288Z,1013.6
2023-03-04T11:41:02.151Z,1013.6
2023-03-04T11:42:02.037Z,1013.7
2023-03-04T11:43:02.028Z,1013.6
2023-03-04T11:44:01.931Z,1013.6
2023-03-04T11:45:01.912Z,1013.6
2023-03-04T11:46:01.923Z,1013.6
2023-03-04T11:47:01.996Z,1013.6
2023-03-04T11:48:02.003Z,1013.5
2023-03-04T11:49:01.884Z,1013.6
2023-03-04T11:50:01.900Z,1013.6
2023-03-04T11:51:01.780Z,1013.6
2023-03-04T11:52:01.778Z,1013.5
2023-03-04T11:53:01.726Z,1013.5
2023-03-04T11:54:01.821Z,1013.6
2023-03-04T11:55:01.715Z,1013.5
2023-03-04T11:56:02.756Z,1013.5
2023-03-04T11:57:02.673Z,1013.5
2023-03-04T11:58:02.678Z,1013.4
2023-03-04T11:59:02.546Z,1013.5
2023-03-04T12:00:02.574Z,1013.5
2023-03-04T12:01:02.500Z,1013.5
2023-03-04T12:02:02.165Z,1013.5
2023-03-04T12:03:02.239Z,1013.4
2023-03-04T12:04:02.610Z,1013.5
2023-03-04T12:05:02.669Z,1013.4
2023-03-04T12:06:02.443Z,1013.4
2023-03-04T12:07:02.474Z,1013.4
2023-03-04T12:08:02.336Z,1013.3
2023-03-04T12:09:02.372Z,1013.3
2023-03-04T12:10:02.348Z,1013.4
2023-03-04T12:11:02.211Z,1013.4
2023-03-04T12:12:02.322Z,1013.4
2023-03-04T12:13:02.260Z,1013.3
2023-03-04T12:14:02.176Z,1013.3
2023-03-04T12:15:02.180Z,1013.4
2023-03-04T12:16:02.337Z,1013.4
2023-03-04T12:17:02.181Z,1013.5
2023-03-04T12:18:02.150Z,1013.3
2023-03-04T12:19:02.052Z,1013.4
2023-03-04T12:20:02.117Z,1013.4
2023-03-04T12:21:01.913Z,1013.4
2023-03-04T12:22:01.989Z,1013.4
2023-03-04T12:23:01.867Z,1013.4
2023-03-04T12:24:01.928Z,1013.4
2023-03-04T12:25:01.828Z,1013.4
2023-03-04T12:26:01.947Z,1013.4
2023-03-04T12:27:01.759Z,1013.4
2023-03-04T12:28:02.784Z,1013.3
2023-03-04T12:29:02.617Z,1013.3
2023-03-04T12:30:02.669Z,1013.3
2023-03-04T12:31:02.775Z,1013.4